Ferry Katsuragi — JI3611 — position and weather

sailwx.info

Track history (hours):
 
Tides and Currents Weather Stations Pressure Air Temp Water Temp Dewpoint Dewpoint Depression Visibility Wind Speed Wind Dir Waves Ship Positions

Ferry Katsuragi

Last reported at 2017-Aug-21 11:03 UTC. Time now 2017-Aug-21 14:05 UTC.
Position N 34°12' E 134°56'.

Length 108 m; draft 4 m.

Type: Passenger vessel. MMSI: 431301245.

Date/timePositionNaut miles runAvg speedWind from/ knotsBaromVisibWave heightAir tempDewpointWater temp
2017-Aug-21 11:03N 34°12' E 134°56'113.9
2017-Aug-21 11:00N 34°13' E 134°57'713.7
2017-Aug-21 10:30N 34°12' E 135°05'3 6.5
2017-Aug-21 10:00N 34°13' E 135°09'0 0.0
2017-Aug-21 09:31N 34°13' E 135°09'713.1
2017-Aug-21 08:59N 34°11' E 135°01'4 1.1
2017-Aug-21 05:31N 34°09' E 134°57'115.5
2017-Aug-21 05:29N 34°09' E 134°57'613.4
2017-Aug-21 05:00N 34°12' E 135°04'4 7.9
2017-Aug-21 04:30N 34°13' E 135°09'0 0.0
2017-Aug-21 04:00N 34°13' E 135°09'612.7
2017-Aug-21 03:30N 34°11' E 135°01'2 0.7
2017-Aug-21 00:06N 34°10' E 134°59'215.0
2017-Aug-20 23:58N 34°11' E 135°01'714.4
2017-Aug-20 23:31N 34°13' E 135°09'0 0.1
2017-Aug-20 23:00N 34°13' E 135°09'3 5.9
2017-Aug-20 22:30N 34°13' E 135°05'8 1.9
2017-Aug-20 18:28N 34°10' E 134°57'613.6
2017-Aug-20 18:01N 34°12' E 135°04'4 8.4
2017-Aug-20 17:31N 34°13' E 135°09'0 0.0
2017-Aug-20 17:00N 34°13' E 135°09'0 0.0
2017-Aug-20 16:30N 34°13' E 135°09'0 0.0
2017-Aug-20 16:01N 34°13' E 135°09'0 0.0
2017-Aug-20 15:31N 34°13' E 135°09'1 2.0
2017-Aug-20 15:00N 34°13' E 135°07'613.0
2017-Aug-20 14:30N 34°10' E 135°01'9 2.8
2017-Aug-20 11:22N 34°08' E 134°50'614.5
2017-Aug-20 10:59N 34°11' E 134°56'714.8
2017-Aug-20 10:30N 34°12' E 135°05'3 6.7
2017-Aug-20 10:01N 34°13' E 135°09'0 0.0
2017-Aug-20 09:30N 34°13' E 135°09'612.6
2017-Aug-20 09:00N 34°12' E 135°01'5 1.3
2017-Aug-20 05:28N 34°10' E 134°56'714.0
2017-Aug-20 04:59N 34°12' E 135°04'4 8.7
2017-Aug-20 04:30N 34°13' E 135°09'0 0.1
2017-Aug-20 04:01N 34°13' E 135°09'714.4
2017-Aug-20 03:30N 34°10' E 135°00'5 1.4
2017-Aug-20 00:17N 34°09' E 134°55'516.0
2017-Aug-20 00:00N 34°11' E 135°00'715.2
2017-Aug-19 23:30N 34°13' E 135°09'0 0.0
2017-Aug-19 23:00N 34°13' E 135°09'3 5.5
2017-Aug-19 22:30N 34°13' E 135°05'814.1
2017-Aug-19 21:56N 34°10' E 134°56'0 0.0
2017-Aug-19 18:29N 34°09' E 134°56'613.9
2017-Aug-19 18:00N 34°12' E 135°04'4 8.5
2017-Aug-19 17:31N 34°13' E 135°09'0 0.0
2017-Aug-19 17:00N 34°13' E 135°09'0 0.0
2017-Aug-19 16:31N 34°13' E 135°09'0 0.0
2017-Aug-19 16:01N 34°13' E 135°09'0 0.0
2017-Aug-19 15:30N 34°13' E 135°09'1 1.5
2017-Aug-19 15:00N 34°13' E 135°08'13 3.5
2017-Aug-19 11:14N 34°09' E 134°53'514.3
2017-Aug-19 10:53N 34°11' E 134°58'614.7
2017-Aug-19 10:30N 34°12' E 135°05'3 6.8
2017-Aug-19 10:01N 34°13' E 135°09'0 0.1
2017-Aug-19 09:30N 34°13' E 135°09'713.7
2017-Aug-19 09:00N 34°11' E 135°00'3 0.8
2017-Aug-19 05:25N 34°10' E 134°57'614.1
2017-Aug-19 05:01N 34°12' E 135°04'4 8.2
2017-Aug-19 04:30N 34°13' E 135°09'0 0.1
2017-Aug-19 04:00N 34°13' E 135°09'714.3
2017-Aug-19 03:30N 34°11' E 135°00'5 1.6
2017-Aug-19 00:19N 34°09' E 134°55'515.4
2017-Aug-19 00:00N 34°11' E 135°00'714.6
2017-Aug-18 23:30N 34°13' E 135°09'0 0.0
2017-Aug-18 23:01N 34°13' E 135°09'3 5.8
2017-Aug-18 22:30N 34°13' E 135°05'714.1
2017-Aug-18 21:59N 34°09' E 134°57'1 0.3
2017-Aug-18 18:28N 34°09' E 134°56'714.4
2017-Aug-18 18:00N 34°12' E 135°03'4 8.8
2017-Aug-18 17:30N 34°13' E 135°09'0 0.0
2017-Aug-18 17:00N 34°13' E 135°09'0 0.0
2017-Aug-18 16:30N 34°13' E 135°09'0 0.0
2017-Aug-18 16:00N 34°13' E 135°09'0 0.0
2017-Aug-18 15:30N 34°13' E 135°09'0 0.1
2017-Aug-18 15:00N 34°13' E 135°09'713.0
2017-Aug-18 14:30N 34°11' E 135°01'2 0.7
2017-Aug-18 10:53N 34°12' E 134°58'513.8
2017-Aug-18 10:30N 34°12' E 135°05'3 6.5
2017-Aug-18 10:00N 34°13' E 135°09'0 0.1
2017-Aug-18 09:30N 34°13' E 135°09'713.3
2017-Aug-18 09:00N 34°12' E 135°01'6 1.7
2017-Aug-18 05:34N 34°10' E 134°54'114.6
2017-Aug-18 05:30N 34°10' E 134°55'715.0
2017-Aug-18 05:00N 34°12' E 135°04'4 8.1
2017-Aug-18 04:30N 34°13' E 135°09'0 0.0
2017-Aug-18 04:00N 34°13' E 135°09'815.0
2017-Aug-18 03:30N 34°11' E 134°60'5 1.6
2017-Aug-18 00:18N 34°09' E 134°54'617.4
2017-Aug-17 23:59N 34°11' E 135°00'714.9
2017-Aug-17 23:30N 34°13' E 135°09'0 0.0
2017-Aug-17 23:01N 34°13' E 135°09'2 4.8
2017-Aug-17 22:31N 34°13' E 135°06'714.7
2017-Aug-17 22:00N 34°09' E 134°58'1 0.4
2017-Aug-17 18:31N 34°10' E 134°56'114.9
2017-Aug-17 18:29N 34°10' E 134°57'613.0
2017-Aug-17 18:00N 34°12' E 135°04'4 8.5
2017-Aug-17 17:31N 34°13' E 135°09'0 0.0
2017-Aug-17 17:00N 34°13' E 135°09'0 0.0
2017-Aug-17 16:31N 34°13' E 135°09'0 0.0
2017-Aug-17 16:01N 34°13' E 135°09'0 0.0
2017-Aug-17 15:30N 34°13' E 135°09'0 0.6
2017-Aug-17 15:01N 34°13' E 135°08'713.3
2017-Aug-17 14:30N 34°12' E 135°00'16 6.0
2017-Aug-17 11:52N 34°05' E 134°43'615.8
2017-Aug-17 11:30N 34°06' E 134°50'815.7
2017-Aug-17 11:00N 34°08' E 134°59'713.2
2017-Aug-17 10:30N 34°12' E 135°05'3 6.4
2017-Aug-17 10:00N 34°13' E 135°09'0 0.1
2017-Aug-17 09:30N 34°13' E 135°09'713.7
2017-Aug-17 09:00N 34°11' E 135°01'3 0.9
2017-Aug-17 05:24N 34°10' E 134°57'614.7
2017-Aug-17 05:00N 34°12' E 135°04'4 8.5
2017-Aug-17 04:30N 34°13' E 135°09'0 0.0
2017-Aug-17 04:00N 34°13' E 135°09'612.6
2017-Aug-17 03:30N 34°10' E 135°02'5 1.5
2017-Aug-17 00:13N 34°09' E 134°56'516.4
2017-Aug-16 23:57N 34°11' E 135°01'714.8
2017-Aug-16 23:31N 34°13' E 135°09'0 0.0
2017-Aug-16 23:01N 34°13' E 135°09'3 6.8
2017-Aug-16 22:31N 34°12' E 135°05'9 2.2
2017-Aug-16 18:34N 34°09' E 134°55'213.0
2017-Aug-16 18:25N 34°10' E 134°57'513.6
2017-Aug-16 18:00N 34°12' E 135°03'4 8.9
2017-Aug-16 17:30N 34°13' E 135°09'0 0.0
2017-Aug-16 17:00N 34°13' E 135°09'0 0.0
2017-Aug-16 16:30N 34°13' E 135°09'0 0.0
2017-Aug-16 16:00N 34°13' E 135°09'0 0.0
2017-Aug-16 15:30N 34°13' E 135°09'1 1.6
2017-Aug-16 15:00N 34°13' E 135°08'713.5
2017-Aug-16 14:30N 34°11' E 134°60'2 0.7
2017-Aug-16 10:57N 34°10' E 134°57'614.5
2017-Aug-16 10:30N 34°12' E 135°04'4 7.0
2017-Aug-16 10:00N 34°13' E 135°09'0 0.1
2017-Aug-16 09:31N 34°13' E 135°09'713.9
2017-Aug-16 09:00N 34°11' E 135°00'5 1.6
2017-Aug-16 05:30N 34°09' E 134°54'815.3
2017-Aug-16 05:00N 34°12' E 135°03'5 9.7
2017-Aug-16 04:30N 34°13' E 135°09'0 0.0
2017-Aug-16 04:01N 34°13' E 135°09'612.1
2017-Aug-16 03:30N 34°11' E 135°01'6 1.8
2017-Aug-16 00:13N 34°08' E 134°55'418.2
2017-Aug-16 00:00N 34°10' E 134°60'816.1
2017-Aug-15 23:30N 34°13' E 135°09'0 0.0
2017-Aug-15 23:00N 34°13' E 135°09'3 5.3
2017-Aug-15 22:30N 34°13' E 135°05'914.9
2017-Aug-15 21:56N 34°10' E 134°56'3 0.9
2017-Aug-15 18:20N 34°12' E 134°59'412.7
2017-Aug-15 18:00N 34°12' E 135°04'4 8.5
2017-Aug-15 17:30N 34°13' E 135°09'2 3.9
2017-Aug-15 17:01N 34°13' E 135°06'816.0
2017-Aug-15 16:30N 34°10' E 134°57'1 0.5
2017-Aug-15 13:24N 34°09' E 134°56'615.6
2017-Aug-15 13:00N 34°12' E 135°03'510.0
2017-Aug-15 12:31N 34°13' E 135°09'0 0.0
2017-Aug-15 12:01N 34°13' E 135°09'5 9.2
2017-Aug-15 11:31N 34°11' E 135°03'6 1.9
2017-Aug-15 08:08N 34°09' E 134°56'217.6
2017-Aug-15 08:00N 34°10' E 134°58'816.7
2017-Aug-15 07:30N 34°13' E 135°08'1 1.2
2017-Aug-15 07:00N 34°13' E 135°09'0 0.0
2017-Aug-15 06:30N 34°13' E 135°09'511.0
2017-Aug-15 06:00N 34°12' E 135°02'3 0.9
2017-Aug-15 02:09N 34°11' E 134°58'216.5
2017-Aug-15 02:00N 34°12' E 135°01'612.8
2017-Aug-15 01:30N 34°13' E 135°09'0 0.0
2017-Aug-15 01:00N 34°13' E 135°09'510.7
2017-Aug-15 00:30N 34°12' E 135°02'6 1.7
2017-Aug-14 21:14N 34°09' E 134°56'517.8
2017-Aug-14 20:59N 34°11' E 135°01'613.5
2017-Aug-14 20:30N 34°13' E 135°09'1 1.6
2017-Aug-14 20:00N 34°13' E 135°08'713.7
2017-Aug-14 19:30N 34°10' E 135°00'3 1.0
2017-Aug-14 16:14N 34°10' E 134°56'416.1
2017-Aug-14 16:00N 34°11' E 135°00'714.4
2017-Aug-14 15:30N 34°13' E 135°09'0 0.0
2017-Aug-14 15:00N 34°13' E 135°09'714.2
2017-Aug-14 14:31N 34°11' E 135°00'6 1.6
2017-Aug-14 11:05N 34°09' E 134°54'216.0
2017-Aug-14 11:00N 34°09' E 134°56'815.6
2017-Aug-14 10:30N 34°12' E 135°04'4 7.3
2017-Aug-14 10:00N 34°13' E 135°09'0 0.0
2017-Aug-14 09:31N 34°13' E 135°09'712.6
2017-Aug-14 08:59N 34°11' E 135°01'6 1.6
2017-Aug-14 05:28N 34°09' E 134°55'715.8
2017-Aug-14 05:00N 34°12' E 135°03'510.1
2017-Aug-14 04:31N 34°13' E 135°09'0 0.0
2017-Aug-14 04:00N 34°13' E 135°09'5 9.7
2017-Aug-14 03:30N 34°12' E 135°03'6 1.7
2017-Aug-14 00:08N 34°09' E 134°57'319.0
2017-Aug-13 23:59N 34°10' E 134°60'816.4
2017-Aug-13 23:31N 34°13' E 135°09'0 0.0
2017-Aug-13 23:01N 34°13' E 135°09'2 4.0
2017-Aug-13 22:31N 34°13' E 135°06'915.0
2017-Aug-13 21:56N 34°09' E 134°57'12 4.5
2017-Aug-13 19:18N 34°05' E 134°43'714.2
2017-Aug-13 18:51N 34°08' E 134°50'714.3
2017-Aug-13 18:22N 34°11' E 134°58'513.6
2017-Aug-13 18:00N 34°12' E 135°04'4 8.5
2017-Aug-13 17:30N 34°13' E 135°09'2 3.9
2017-Aug-13 17:00N 34°13' E 135°06'8 2.1
2017-Aug-13 13:21N 34°10' E 134°58'515.5
2017-Aug-13 13:00N 34°12' E 135°03'4 8.8
2017-Aug-13 12:31N 34°13' E 135°09'0 0.0
2017-Aug-13 12:01N 34°13' E 135°09'611.3
2017-Aug-13 11:30N 34°11' E 135°02'5 1.6
2017-Aug-13 08:08N 34°09' E 134°56'217.3
2017-Aug-13 07:59N 34°10' E 134°59'816.6
2017-Aug-13 07:31N 34°13' E 135°08'1 1.7
2017-Aug-13 07:00N 34°13' E 135°09'0 0.4
2017-Aug-13 06:31N 34°13' E 135°08'10 2.5
2017-Aug-13 02:19N 34°09' E 134°57'516.5
2017-Aug-13 02:00N 34°11' E 135°02'510.9
2017-Aug-13 01:30N 34°13' E 135°09'0 0.0
2017-Aug-13 01:00N 34°13' E 135°09'510.7
2017-Aug-13 00:30N 34°12' E 135°02'6 1.7
2017-Aug-12 21:14N 34°09' E 134°56'418.4
2017-Aug-12 21:00N 34°11' E 135°01'713.5
2017-Aug-12 20:30N 34°13' E 135°09'0 0.0
2017-Aug-12 20:00N 34°13' E 135°09'4 8.6
2017-Aug-12 19:30N 34°12' E 135°04'8 2.4
2017-Aug-12 16:15N 34°08' E 134°56'416.6
2017-Aug-12 16:00N 34°10' E 135°00'815.6
2017-Aug-12 15:30N 34°13' E 135°09'0 0.0
2017-Aug-12 15:00N 34°13' E 135°09'5 9.1
2017-Aug-12 14:30N 34°12' E 135°03'5 1.4
2017-Aug-12 10:54N 34°10' E 134°58'616.1
2017-Aug-12 10:31N 34°12' E 135°05'3 6.5
2017-Aug-12 10:00N 34°13' E 135°09'0 0.0
2017-Aug-12 09:30N 34°13' E 135°09'712.9
2017-Aug-12 08:58N 34°09' E 135°01'2 0.7
2017-Aug-12 05:16N 34°10' E 134°58'417.2
2017-Aug-12 05:00N 34°12' E 135°03'5 9.0
2017-Aug-12 04:30N 34°13' E 135°09'0 0.0
2017-Aug-12 04:00N 34°13' E 135°09'610.9
2017-Aug-12 03:30N 34°12' E 135°02'6 1.8
2017-Aug-12 00:14N 34°09' E 134°55'417.1
2017-Aug-12 00:00N 34°11' E 134°60'815.6
2017-Aug-11 23:30N 34°13' E 135°09'0 0.0
2017-Aug-11 23:00N 34°13' E 135°09'2 4.4
2017-Aug-11 22:30N 34°13' E 135°06'815.1
2017-Aug-11 22:00N 34°09' E 134°58'1 0.4
2017-Aug-11 18:28N 34°09' E 134°56'714.0
2017-Aug-11 18:00N 34°12' E 135°03'4 8.9
2017-Aug-11 17:30N 34°13' E 135°09'0 0.0
2017-Aug-11 17:00N 34°13' E 135°09'0 0.0
2017-Aug-11 16:30N 34°13' E 135°09'0 0.0
2017-Aug-11 16:00N 34°13' E 135°09'0 0.0
2017-Aug-11 15:30N 34°13' E 135°09'0 0.7
2017-Aug-11 15:00N 34°13' E 135°08'713.2
2017-Aug-11 14:31N 34°11' E 135°00'  
Track history (hours):
 
Tides and Currents Weather Stations Pressure Air Temp Water Temp Dewpoint Dewpoint Depression Visibility Wind Speed Wind Dir Waves Ship Positions

Ferry Katsuragi

Last reported at 2017-Aug-21 11:03 UTC. Time now 2017-Aug-21 14:05 UTC.
Position N 34°12' E 134°56'.

Length 108 m; draft 4 m.

Type: Passenger vessel. MMSI: 431301245.

Date/timePositionNaut miles runAvg speedWind from/ knotsBaromVisibWave heightAir tempDewpointWater temp
2017-Aug-21 11:03N 34°12' E 134°56'113.9
2017-Aug-21 11:00N 34°13' E 134°57'713.7
2017-Aug-21 10:30N 34°12' E 135°05'3 6.5
2017-Aug-21 10:00N 34°13' E 135°09'0 0.0
2017-Aug-21 09:31N 34°13' E 135°09'713.1
2017-Aug-21 08:59N 34°11' E 135°01'4 1.1
2017-Aug-21 05:31N 34°09' E 134°57'115.5
2017-Aug-21 05:29N 34°09' E 134°57'613.4
2017-Aug-21 05:00N 34°12' E 135°04'4 7.9
2017-Aug-21 04:30N 34°13' E 135°09'0 0.0
2017-Aug-21 04:00N 34°13' E 135°09'612.7
2017-Aug-21 03:30N 34°11' E 135°01'2 0.7
2017-Aug-21 00:06N 34°10' E 134°59'215.0
2017-Aug-20 23:58N 34°11' E 135°01'714.4
2017-Aug-20 23:31N 34°13' E 135°09'0 0.1
2017-Aug-20 23:00N 34°13' E 135°09'3 5.9
2017-Aug-20 22:30N 34°13' E 135°05'8 1.9
2017-Aug-20 18:28N 34°10' E 134°57'613.6
2017-Aug-20 18:01N 34°12' E 135°04'4 8.4
2017-Aug-20 17:31N 34°13' E 135°09'0 0.0
2017-Aug-20 17:00N 34°13' E 135°09'0 0.0
2017-Aug-20 16:30N 34°13' E 135°09'0 0.0
2017-Aug-20 16:01N 34°13' E 135°09'0 0.0
2017-Aug-20 15:31N 34°13' E 135°09'1 2.0
2017-Aug-20 15:00N 34°13' E 135°07'613.0
2017-Aug-20 14:30N 34°10' E 135°01'9 2.8
2017-Aug-20 11:22N 34°08' E 134°50'614.5
2017-Aug-20 10:59N 34°11' E 134°56'714.8
2017-Aug-20 10:30N 34°12' E 135°05'3 6.7
2017-Aug-20 10:01N 34°13' E 135°09'0 0.0
2017-Aug-20 09:30N 34°13' E 135°09'612.6
2017-Aug-20 09:00N 34°12' E 135°01'5 1.3
2017-Aug-20 05:28N 34°10' E 134°56'714.0
2017-Aug-20 04:59N 34°12' E 135°04'4 8.7
2017-Aug-20 04:30N 34°13' E 135°09'0 0.1
2017-Aug-20 04:01N 34°13' E 135°09'714.4
2017-Aug-20 03:30N 34°10' E 135°00'5 1.4
2017-Aug-20 00:17N 34°09' E 134°55'516.0
2017-Aug-20 00:00N 34°11' E 135°00'715.2
2017-Aug-19 23:30N 34°13' E 135°09'0 0.0
2017-Aug-19 23:00N 34°13' E 135°09'3 5.5
2017-Aug-19 22:30N 34°13' E 135°05'814.1
2017-Aug-19 21:56N 34°10' E 134°56'0 0.0
2017-Aug-19 18:29N 34°09' E 134°56'613.9
2017-Aug-19 18:00N 34°12' E 135°04'4 8.5
2017-Aug-19 17:31N 34°13' E 135°09'0 0.0
2017-Aug-19 17:00N 34°13' E 135°09'0 0.0
2017-Aug-19 16:31N 34°13' E 135°09'0 0.0
2017-Aug-19 16:01N 34°13' E 135°09'0 0.0
2017-Aug-19 15:30N 34°13' E 135°09'1 1.5
2017-Aug-19 15:00N 34°13' E 135°08'13 3.5
2017-Aug-19 11:14N 34°09' E 134°53'514.3
2017-Aug-19 10:53N 34°11' E 134°58'614.7
2017-Aug-19 10:30N 34°12' E 135°05'3 6.8
2017-Aug-19 10:01N 34°13' E 135°09'0 0.1
2017-Aug-19 09:30N 34°13' E 135°09'713.7
2017-Aug-19 09:00N 34°11' E 135°00'3 0.8
2017-Aug-19 05:25N 34°10' E 134°57'614.1
2017-Aug-19 05:01N 34°12' E 135°04'4 8.2
2017-Aug-19 04:30N 34°13' E 135°09'0 0.1
2017-Aug-19 04:00N 34°13' E 135°09'714.3
2017-Aug-19 03:30N 34°11' E 135°00'5 1.6
2017-Aug-19 00:19N 34°09' E 134°55'515.4
2017-Aug-19 00:00N 34°11' E 135°00'714.6
2017-Aug-18 23:30N 34°13' E 135°09'0 0.0
2017-Aug-18 23:01N 34°13' E 135°09'3 5.8
2017-Aug-18 22:30N 34°13' E 135°05'714.1
2017-Aug-18 21:59N 34°09' E 134°57'1 0.3
2017-Aug-18 18:28N 34°09' E 134°56'714.4
2017-Aug-18 18:00N 34°12' E 135°03'4 8.8
2017-Aug-18 17:30N 34°13' E 135°09'0 0.0
2017-Aug-18 17:00N 34°13' E 135°09'0 0.0
2017-Aug-18 16:30N 34°13' E 135°09'0 0.0
2017-Aug-18 16:00N 34°13' E 135°09'0 0.0
2017-Aug-18 15:30N 34°13' E 135°09'0 0.1
2017-Aug-18 15:00N 34°13' E 135°09'713.0
2017-Aug-18 14:30N 34°11' E 135°01'2 0.7
2017-Aug-18 10:53N 34°12' E 134°58'513.8
2017-Aug-18 10:30N 34°12' E 135°05'3 6.5
2017-Aug-18 10:00N 34°13' E 135°09'0 0.1
2017-Aug-18 09:30N 34°13' E 135°09'713.3
2017-Aug-18 09:00N 34°12' E 135°01'6 1.7
2017-Aug-18 05:34N 34°10' E 134°54'114.6
2017-Aug-18 05:30N 34°10' E 134°55'715.0
2017-Aug-18 05:00N 34°12' E 135°04'4 8.1
2017-Aug-18 04:30N 34°13' E 135°09'0 0.0
2017-Aug-18 04:00N 34°13' E 135°09'815.0
2017-Aug-18 03:30N 34°11' E 134°60'5 1.6
2017-Aug-18 00:18N 34°09' E 134°54'617.4
2017-Aug-17 23:59N 34°11' E 135°00'714.9
2017-Aug-17 23:30N 34°13' E 135°09'0 0.0
2017-Aug-17 23:01N 34°13' E 135°09'2 4.8
2017-Aug-17 22:31N 34°13' E 135°06'714.7
2017-Aug-17 22:00N 34°09' E 134°58'1 0.4
2017-Aug-17 18:31N 34°10' E 134°56'114.9
2017-Aug-17 18:29N 34°10' E 134°57'613.0
2017-Aug-17 18:00N 34°12' E 135°04'4 8.5
2017-Aug-17 17:31N 34°13' E 135°09'0 0.0
2017-Aug-17 17:00N 34°13' E 135°09'0 0.0
2017-Aug-17 16:31N 34°13' E 135°09'0 0.0
2017-Aug-17 16:01N 34°13' E 135°09'0 0.0
2017-Aug-17 15:30N 34°13' E 135°09'0 0.6
2017-Aug-17 15:01N 34°13' E 135°08'713.3
2017-Aug-17 14:30N 34°12' E 135°00'16 6.0
2017-Aug-17 11:52N 34°05' E 134°43'615.8
2017-Aug-17 11:30N 34°06' E 134°50'815.7
2017-Aug-17 11:00N 34°08' E 134°59'713.2
2017-Aug-17 10:30N 34°12' E 135°05'3 6.4
2017-Aug-17 10:00N 34°13' E 135°09'0 0.1
2017-Aug-17 09:30N 34°13' E 135°09'713.7
2017-Aug-17 09:00N 34°11' E 135°01'3 0.9
2017-Aug-17 05:24N 34°10' E 134°57'614.7
2017-Aug-17 05:00N 34°12' E 135°04'4 8.5
2017-Aug-17 04:30N 34°13' E 135°09'0 0.0
2017-Aug-17 04:00N 34°13' E 135°09'612.6
2017-Aug-17 03:30N 34°10' E 135°02'5 1.5
2017-Aug-17 00:13N 34°09' E 134°56'516.4
2017-Aug-16 23:57N 34°11' E 135°01'714.8
2017-Aug-16 23:31N 34°13' E 135°09'0 0.0
2017-Aug-16 23:01N 34°13' E 135°09'3 6.8
2017-Aug-16 22:31N 34°12' E 135°05'9 2.2
2017-Aug-16 18:34N 34°09' E 134°55'213.0
2017-Aug-16 18:25N 34°10' E 134°57'513.6
2017-Aug-16 18:00N 34°12' E 135°03'4 8.9
2017-Aug-16 17:30N 34°13' E 135°09'0 0.0
2017-Aug-16 17:00N 34°13' E 135°09'0 0.0
2017-Aug-16 16:30N 34°13' E 135°09'0 0.0
2017-Aug-16 16:00N 34°13' E 135°09'0 0.0
2017-Aug-16 15:30N 34°13' E 135°09'1 1.6
2017-Aug-16 15:00N 34°13' E 135°08'713.5
2017-Aug-16 14:30N 34°11' E 134°60'2 0.7
2017-Aug-16 10:57N 34°10' E 134°57'614.5
2017-Aug-16 10:30N 34°12' E 135°04'4 7.0
2017-Aug-16 10:00N 34°13' E 135°09'0 0.1
2017-Aug-16 09:31N 34°13' E 135°09'713.9
2017-Aug-16 09:00N 34°11' E 135°00'5 1.6
2017-Aug-16 05:30N 34°09' E 134°54'815.3
2017-Aug-16 05:00N 34°12' E 135°03'5 9.7
2017-Aug-16 04:30N 34°13' E 135°09'0 0.0
2017-Aug-16 04:01N 34°13' E 135°09'612.1
2017-Aug-16 03:30N 34°11' E 135°01'6 1.8
2017-Aug-16 00:13N 34°08' E 134°55'418.2
2017-Aug-16 00:00N 34°10' E 134°60'816.1
2017-Aug-15 23:30N 34°13' E 135°09'0 0.0
2017-Aug-15 23:00N 34°13' E 135°09'3 5.3
2017-Aug-15 22:30N 34°13' E 135°05'914.9
2017-Aug-15 21:56N 34°10' E 134°56'3 0.9
2017-Aug-15 18:20N 34°12' E 134°59'412.7
2017-Aug-15 18:00N 34°12' E 135°04'4 8.5
2017-Aug-15 17:30N 34°13' E 135°09'2 3.9
2017-Aug-15 17:01N 34°13' E 135°06'816.0
2017-Aug-15 16:30N 34°10' E 134°57'1 0.5
2017-Aug-15 13:24N 34°09' E 134°56'615.6
2017-Aug-15 13:00N 34°12' E 135°03'510.0
2017-Aug-15 12:31N 34°13' E 135°09'0 0.0
2017-Aug-15 12:01N 34°13' E 135°09'5 9.2
2017-Aug-15 11:31N 34°11' E 135°03'6 1.9
2017-Aug-15 08:08N 34°09' E 134°56'217.6
2017-Aug-15 08:00N 34°10' E 134°58'816.7
2017-Aug-15 07:30N 34°13' E 135°08'1 1.2
2017-Aug-15 07:00N 34°13' E 135°09'0 0.0
2017-Aug-15 06:30N 34°13' E 135°09'511.0
2017-Aug-15 06:00N 34°12' E 135°02'3 0.9
2017-Aug-15 02:09N 34°11' E 134°58'216.5
2017-Aug-15 02:00N 34°12' E 135°01'612.8
2017-Aug-15 01:30N 34°13' E 135°09'0 0.0
2017-Aug-15 01:00N 34°13' E 135°09'510.7
2017-Aug-15 00:30N 34°12' E 135°02'6 1.7
2017-Aug-14 21:14N 34°09' E 134°56'517.8
2017-Aug-14 20:59N 34°11' E 135°01'613.5
2017-Aug-14 20:30N 34°13' E 135°09'1 1.6
2017-Aug-14 20:00N 34°13' E 135°08'713.7
2017-Aug-14 19:30N 34°10' E 135°00'3 1.0
2017-Aug-14 16:14N 34°10' E 134°56'416.1
2017-Aug-14 16:00N 34°11' E 135°00'714.4
2017-Aug-14 15:30N 34°13' E 135°09'0 0.0
2017-Aug-14 15:00N 34°13' E 135°09'714.2
2017-Aug-14 14:31N 34°11' E 135°00'6 1.6
2017-Aug-14 11:05N 34°09' E 134°54'216.0
2017-Aug-14 11:00N 34°09' E 134°56'815.6
2017-Aug-14 10:30N 34°12' E 135°04'4 7.3
2017-Aug-14 10:00N 34°13' E 135°09'0 0.0
2017-Aug-14 09:31N 34°13' E 135°09'712.6
2017-Aug-14 08:59N 34°11' E 135°01'6 1.6
2017-Aug-14 05:28N 34°09' E 134°55'715.8
2017-Aug-14 05:00N 34°12' E 135°03'510.1
2017-Aug-14 04:31N 34°13' E 135°09'0 0.0
2017-Aug-14 04:00N 34°13' E 135°09'5 9.7
2017-Aug-14 03:30N 34°12' E 135°03'6 1.7
2017-Aug-14 00:08N 34°09' E 134°57'319.0
2017-Aug-13 23:59N 34°10' E 134°60'816.4
2017-Aug-13 23:31N 34°13' E 135°09'0 0.0
2017-Aug-13 23:01N 34°13' E 135°09'2 4.0
2017-Aug-13 22:31N 34°13' E 135°06'915.0
2017-Aug-13 21:56N 34°09' E 134°57'12 4.5
2017-Aug-13 19:18N 34°05' E 134°43'714.2
2017-Aug-13 18:51N 34°08' E 134°50'714.3
2017-Aug-13 18:22N 34°11' E 134°58'513.6
2017-Aug-13 18:00N 34°12' E 135°04'4 8.5
2017-Aug-13 17:30N 34°13' E 135°09'2 3.9
2017-Aug-13 17:00N 34°13' E 135°06'8 2.1
2017-Aug-13 13:21N 34°10' E 134°58'515.5
2017-Aug-13 13:00N 34°12' E 135°03'4 8.8
2017-Aug-13 12:31N 34°13' E 135°09'0 0.0
2017-Aug-13 12:01N 34°13' E 135°09'611.3
2017-Aug-13 11:30N 34°11' E 135°02'5 1.6
2017-Aug-13 08:08N 34°09' E 134°56'217.3
2017-Aug-13 07:59N 34°10' E 134°59'816.6
2017-Aug-13 07:31N 34°13' E 135°08'1 1.7
2017-Aug-13 07:00N 34°13' E 135°09'0 0.4
2017-Aug-13 06:31N 34°13' E 135°08'10 2.5
2017-Aug-13 02:19N 34°09' E 134°57'516.5
2017-Aug-13 02:00N 34°11' E 135°02'510.9
2017-Aug-13 01:30N 34°13' E 135°09'0 0.0
2017-Aug-13 01:00N 34°13' E 135°09'510.7
2017-Aug-13 00:30N 34°12' E 135°02'6 1.7
2017-Aug-12 21:14N 34°09' E 134°56'418.4
2017-Aug-12 21:00N 34°11' E 135°01'713.5
2017-Aug-12 20:30N 34°13' E 135°09'0 0.0
2017-Aug-12 20:00N 34°13' E 135°09'4 8.6
2017-Aug-12 19:30N 34°12' E 135°04'8 2.4
2017-Aug-12 16:15N 34°08' E 134°56'416.6
2017-Aug-12 16:00N 34°10' E 135°00'815.6
2017-Aug-12 15:30N 34°13' E 135°09'0 0.0
2017-Aug-12 15:00N 34°13' E 135°09'5 9.1
2017-Aug-12 14:30N 34°12' E 135°03'5 1.4
2017-Aug-12 10:54N 34°10' E 134°58'616.1
2017-Aug-12 10:31N 34°12' E 135°05'3 6.5
2017-Aug-12 10:00N 34°13' E 135°09'0 0.0
2017-Aug-12 09:30N 34°13' E 135°09'712.9
2017-Aug-12 08:58N 34°09' E 135°01'2 0.7
2017-Aug-12 05:16N 34°10' E 134°58'417.2
2017-Aug-12 05:00N 34°12' E 135°03'5 9.0
2017-Aug-12 04:30N 34°13' E 135°09'0 0.0
2017-Aug-12 04:00N 34°13' E 135°09'610.9
2017-Aug-12 03:30N 34°12' E 135°02'6 1.8
2017-Aug-12 00:14N 34°09' E 134°55'417.1
2017-Aug-12 00:00N 34°11' E 134°60'815.6
2017-Aug-11 23:30N 34°13' E 135°09'0 0.0
2017-Aug-11 23:00N 34°13' E 135°09'2 4.4
2017-Aug-11 22:30N 34°13' E 135°06'815.1
2017-Aug-11 22:00N 34°09' E 134°58'1 0.4
2017-Aug-11 18:28N 34°09' E 134°56'714.0
2017-Aug-11 18:00N 34°12' E 135°03'4 8.9
2017-Aug-11 17:30N 34°13' E 135°09'0 0.0
2017-Aug-11 17:00N 34°13' E 135°09'0 0.0
2017-Aug-11 16:30N 34°13' E 135°09'0 0.0
2017-Aug-11 16:00N 34°13' E 135°09'0 0.0
2017-Aug-11 15:30N 34°13' E 135°09'0 0.7
2017-Aug-11 15:00N 34°13' E 135°08'713.2
2017-Aug-11 14:31N 34°11' E 135°00'  

Dump ship's entire track history